sensor_id;sensor_type;location;lat;lon;timestamp;temperature;humidity
26613;DHT22;14248;57.652;11.908;2022-12-18T00:01:26;3.90;99.90
26613;DHT22;14248;57.652;11.908;2022-12-18T00:03:55;3.90;99.90
26613;DHT22;14248;57.652;11.908;2022-12-18T00:06:23;3.90;99.90
26613;DHT22;14248;57.652;11.908;2022-12-18T00:08:51;3.90;99.90
26613;DHT22;14248;57.652;11.908;2022-12-18T00:11:20;3.90;99.90
26613;DHT22;14248;57.652;11.908;2022-12-18T00:13:46;3.80;99.90
26613;DHT22;14248;57.652;11.908;2022-12-18T00:16:16;3.80;99.90
26613;DHT22;14248;57.652;11.908;2022-12-18T00:18:44;3.80;99.90
26613;DHT22;14248;57.652;11.908;2022-12-18T00:21:12;3.80;99.90
26613;DHT22;14248;57.652;11.908;2022-12-18T00:23:41;3.80;99.90
26613;DHT22;14248;57.652;11.908;2022-12-18T00:26:13;3.70;99.90
26613;DHT22;14248;57.652;11.908;2022-12-18T00:28:40;3.70;99.90
26613;DHT22;14248;57.652;11.908;2022-12-18T00:31:11;3.60;99.90
26613;DHT22;14248;57.652;11.908;2022-12-18T00:33:38;3.60;99.90
26613;DHT22;14248;57.652;11.908;2022-12-18T00:36:11;3.50;99.90
26613;DHT22;14248;57.652;11.908;2022-12-18T00:38:38;3.50;99.90
26613;DHT22;14248;57.652;11.908;2022-12-18T00:41:04;3.40;99.90
26613;DHT22;14248;57.652;11.908;2022-12-18T00:43:30;3.40;99.90
26613;DHT22;14248;57.652;11.908;2022-12-18T00:45:56;3.30;99.90
26613;DHT22;14248;57.652;11.908;2022-12-18T00:48:21;3.30;99.90
26613;DHT22;14248;57.652;11.908;2022-12-18T00:50:48;3.20;99.90
26613;DHT22;14248;57.652;11.908;2022-12-18T00:53:14;3.20;99.90
26613;DHT22;14248;57.652;11.908;2022-12-18T00:55:40;3.20;99.90
26613;DHT22;14248;57.652;11.908;2022-12-18T00:58:08;3.20;99.90
26613;DHT22;14248;57.652;11.908;2022-12-18T01:00:34;3.20;99.90
26613;DHT22;14248;57.652;11.908;2022-12-18T01:03:00;3.20;99.90
26613;DHT22;14248;57.652;11.908;2022-12-18T01:05:26;3.20;99.90
26613;DHT22;14248;57.652;11.908;2022-12-18T01:07:52;3.20;99.90
26613;DHT22;14248;57.652;11.908;2022-12-18T01:10:18;3.20;99.90
26613;DHT22;14248;57.652;11.908;2022-12-18T01:12:45;3.20;99.90
26613;DHT22;14248;57.652;11.908;2022-12-18T01:15:13;3.20;99.90
26613;DHT22;14248;57.652;11.908;2022-12-18T01:17:39;3.20;99.90
26613;DHT22;14248;57.652;11.908;2022-12-18T01:20:05;3.20;99.90
26613;DHT22;14248;57.652;11.908;2022-12-18T01:22:31;3.20;99.90
26613;DHT22;14248;57.652;11.908;2022-12-18T01:24:57;3.20;99.90
26613;DHT22;14248;57.652;11.908;2022-12-18T01:27:22;3.20;99.90
26613;DHT22;14248;57.652;11.908;2022-12-18T01:29:49;3.20;99.90
26613;DHT22;14248;57.652;11.908;2022-12-18T01:32:15;3.20;99.90
26613;DHT22;14248;57.652;11.908;2022-12-18T01:34:40;3.20;99.90
26613;DHT22;14248;57.652;11.908;2022-12-18T01:37:06;3.10;99.90
26613;DHT22;14248;57.652;11.908;2022-12-18T01:39:32;3.10;99.90
26613;DHT22;14248;57.652;11.908;2022-12-18T01:42:00;3.10;99.90
26613;DHT22;14248;57.652;11.908;2022-12-18T01:49:51;3.10;99.90
26613;DHT22;14248;57.652;11.908;2022-12-18T01:52:18;3.10;99.90
26613;DHT22;14248;57.652;11.908;2022-12-18T01:54:44;3.10;99.90
26613;DHT22;14248;57.652;11.908;2022-12-18T01:57:11;3.10;99.90
26613;DHT22;14248;57.652;11.908;2022-12-18T01:59:37;3.10;99.90
26613;DHT22;14248;57.652;11.908;2022-12-18T02:02:05;3.10;99.90
26613;DHT22;14248;57.652;11.908;2022-12-18T02:04:31;3.20;99.90
26613;DHT22;14248;57.652;11.908;2022-12-18T02:09:44;3.20;99.90
26613;DHT22;14248;57.652;11.908;2022-12-18T02:12:23;3.20;99.90
26613;DHT22;14248;57.652;11.908;2022-12-18T02:20:40;3.30;99.90
26613;DHT22;14248;57.652;11.908;2022-12-18T02:28:29;3.50;99.90
26613;DHT22;14248;57.652;11.908;2022-12-18T02:31:00;3.50;99.90
26613;DHT22;14248;57.652;11.908;2022-12-18T02:33:27;3.50;99.90
26613;DHT22;14248;57.652;11.908;2022-12-18T02:35:55;3.50;99.90
26613;DHT22;14248;57.652;11.908;2022-12-18T02:38:23;3.60;99.90
26613;DHT22;14248;57.652;11.908;2022-12-18T02:40:52;3.60;99.90
26613;DHT22;14248;57.652;11.908;2022-12-18T02:43:18;3.60;99.90
26613;DHT22;14248;57.652;11.908;2022-12-18T02:45:50;3.60;99.90
26613;DHT22;14248;57.652;11.908;2022-12-18T02:48:24;3.60;99.90
26613;DHT22;14248;57.652;11.908;2022-12-18T02:54:10;3.60;99.90
26613;DHT22;14248;57.652;11.908;2022-12-18T02:56:51;3.60;99.90
26613;DHT22;14248;57.652;11.908;2022-12-18T02:59:23;3.60;99.90
26613;DHT22;14248;57.652;11.908;2022-12-18T03:01:58;3.70;99.90
26613;DHT22;14248;57.652;11.908;2022-12-18T03:04:30;3.70;99.90
26613;DHT22;14248;57.652;11.908;2022-12-18T03:06:59;3.70;99.90
26613;DHT22;14248;57.652;11.908;2022-12-18T03:09:32;3.70;99.90
26613;DHT22;14248;57.652;11.908;2022-12-18T03:12:06;3.70;99.90
26613;DHT22;14248;57.652;11.908;2022-12-18T03:15:03;3.70;99.90
26613;DHT22;14248;57.652;11.908;2022-12-18T03:17:32;3.70;99.90
26613;DHT22;14248;57.652;11.908;2022-12-18T03:20:05;3.70;99.90
26613;DHT22;14248;57.652;11.908;2022-12-18T03:22:33;3.70;99.90
26613;DHT22;14248;57.652;11.908;2022-12-18T03:25:03;3.80;99.90
26613;DHT22;14248;57.652;11.908;2022-12-18T03:27:31;3.80;99.90
26613;DHT22;14248;57.652;11.908;2022-12-18T03:30:05;3.80;99.90
26613;DHT22;14248;57.652;11.908;2022-12-18T03:35:28;3.80;99.90
26613;DHT22;14248;57.652;11.908;2022-12-18T03:37:54;3.80;99.90
26613;DHT22;14248;57.652;11.908;2022-12-18T03:40:26;3.80;99.90
26613;DHT22;14248;57.652;11.908;2022-12-18T03:43:11;3.80;99.90
26613;DHT22;14248;57.652;11.908;2022-12-18T03:45:54;3.80;99.90
26613;DHT22;14248;57.652;11.908;2022-12-18T03:48:33;3.80;99.90
26613;DHT22;14248;57.652;11.908;2022-12-18T03:51:30;3.80;99.90
26613;DHT22;14248;57.652;11.908;2022-12-18T03:53:58;3.80;99.90
26613;DHT22;14248;57.652;11.908;2022-12-18T03:56:28;3.80;99.90
26613;DHT22;14248;57.652;11.908;2022-12-18T03:58:55;3.80;99.90
26613;DHT22;14248;57.652;11.908;2022-12-18T04:01:28;3.80;99.90
26613;DHT22;14248;57.652;11.908;2022-12-18T04:03:57;3.80;99.90
26613;DHT22;14248;57.652;11.908;2022-12-18T04:06:25;3.80;99.90
26613;DHT22;14248;57.652;11.908;2022-12-18T04:08:52;3.80;99.90
26613;DHT22;14248;57.652;11.908;2022-12-18T04:11:18;3.90;99.90
26613;DHT22;14248;57.652;11.908;2022-12-18T04:13:45;3.90;99.90
26613;DHT22;14248;57.652;11.908;2022-12-18T04:16:11;3.90;99.90
26613;DHT22;14248;57.652;11.908;2022-12-18T04:18:37;3.90;99.90
26613;DHT22;14248;57.652;11.908;2022-12-18T04:21:03;3.90;99.90
26613;DHT22;14248;57.652;11.908;2022-12-18T04:23:29;3.90;99.90
26613;DHT22;14248;57.652;11.908;2022-12-18T04:25:55;3.90;99.90
26613;DHT22;14248;57.652;11.908;2022-12-18T04:28:21;3.90;99.90
26613;DHT22;14248;57.652;11.908;2022-12-18T04:30:48;3.90;99.90
26613;DHT22;14248;57.652;11.908;2022-12-18T04:33:17;3.90;99.90
26613;DHT22;14248;57.652;11.908;2022-12-18T04:35:43;3.90;99.90
26613;DHT22;14248;57.652;11.908;2022-12-18T04:38:09;3.90;99.90
26613;DHT22;14248;57.652;11.908;2022-12-18T04:40:36;3.90;99.90
26613;DHT22;14248;57.652;11.908;2022-12-18T04:43:04;3.90;99.90
26613;DHT22;14248;57.652;11.908;2022-12-18T04:45:30;3.90;99.90
26613;DHT22;14248;57.652;11.908;2022-12-18T04:48:00;3.90;99.90
26613;DHT22;14248;57.652;11.908;2022-12-18T04:50:27;3.90;99.90
26613;DHT22;14248;57.652;11.908;2022-12-18T04:52:54;3.90;99.90
26613;DHT22;14248;57.652;11.908;2022-12-18T04:55:21;3.90;99.90
26613;DHT22;14248;57.652;11.908;2022-12-18T04:57:46;3.90;99.90
26613;DHT22;14248;57.652;11.908;2022-12-18T05:00:12;3.90;99.90
26613;DHT22;14248;57.652;11.908;2022-12-18T05:02:38;3.90;99.90
26613;DHT22;14248;57.652;11.908;2022-12-18T05:05:04;3.90;99.90
26613;DHT22;14248;57.652;11.908;2022-12-18T05:07:30;3.90;99.90
26613;DHT22;14248;57.652;11.908;2022-12-18T05:09:56;4.00;99.90
26613;DHT22;14248;57.652;11.908;2022-12-18T05:12:22;3.90;99.90
26613;DHT22;14248;57.652;11.908;2022-12-18T05:14:47;3.90;99.90
26613;DHT22;14248;57.652;11.908;2022-12-18T05:17:14;4.00;99.90
26613;DHT22;14248;57.652;11.908;2022-12-18T05:19:40;4.00;99.90
26613;DHT22;14248;57.652;11.908;2022-12-18T05:22:07;4.00;99.90
26613;DHT22;14248;57.652;11.908;2022-12-18T05:24:34;4.00;99.90
26613;DHT22;14248;57.652;11.908;2022-12-18T05:27:01;4.00;99.90
26613;DHT22;14248;57.652;11.908;2022-12-18T05:29:35;4.00;99.90
26613;DHT22;14248;57.652;11.908;2022-12-18T05:32:03;4.00;99.90
26613;DHT22;14248;57.652;11.908;2022-12-18T05:34:29;4.10;99.90
26613;DHT22;14248;57.652;11.908;2022-12-18T05:36:56;4.10;99.90
26613;DHT22;14248;57.652;11.908;2022-12-18T05:44:15;4.10;99.90
26613;DHT22;14248;57.652;11.908;2022-12-18T05:46:41;4.10;99.90
26613;DHT22;14248;57.652;11.908;2022-12-18T05:49:07;4.10;99.90
26613;DHT22;14248;57.652;11.908;2022-12-18T05:51:33;4.10;99.90
26613;DHT22;14248;57.652;11.908;2022-12-18T05:54:01;4.20;99.90
26613;DHT22;14248;57.652;11.908;2022-12-18T05:56:27;4.20;99.90
26613;DHT22;14248;57.652;11.908;2022-12-18T05:58:53;4.10;99.90
26613;DHT22;14248;57.652;11.908;2022-12-18T06:01:25;4.10;99.90
26613;DHT22;14248;57.652;11.908;2022-12-18T06:03:53;4.10;99.90
26613;DHT22;14248;57.652;11.908;2022-12-18T06:06:21;4.10;99.90
26613;DHT22;14248;57.652;11.908;2022-12-18T06:08:50;4.10;99.90
26613;DHT22;14248;57.652;11.908;2022-12-18T06:11:23;4.10;99.90
26613;DHT22;14248;57.652;11.908;2022-12-18T06:13:55;4.10;99.90
26613;DHT22;14248;57.652;11.908;2022-12-18T06:16:22;4.10;99.90
26613;DHT22;14248;57.652;11.908;2022-12-18T06:18:49;4.10;99.90
26613;DHT22;14248;57.652;11.908;2022-12-18T06:21:15;4.10;99.90
26613;DHT22;14248;57.652;11.908;2022-12-18T06:23:41;4.10;99.90
26613;DHT22;14248;57.652;11.908;2022-12-18T06:26:10;4.20;99.90
26613;DHT22;14248;57.652;11.908;2022-12-18T06:28:36;4.20;99.90
26613;DHT22;14248;57.652;11.908;2022-12-18T06:31:03;4.20;99.90
26613;DHT22;14248;57.652;11.908;2022-12-18T06:33:29;4.20;99.90
26613;DHT22;14248;57.652;11.908;2022-12-18T06:36:01;4.20;99.90
26613;DHT22;14248;57.652;11.908;2022-12-18T06:38:27;4.20;99.90
26613;DHT22;14248;57.652;11.908;2022-12-18T06:41:00;4.20;99.90
26613;DHT22;14248;57.652;11.908;2022-12-18T06:43:26;4.20;99.90
26613;DHT22;14248;57.652;11.908;2022-12-18T06:46:00;4.20;99.90
26613;DHT22;14248;57.652;11.908;2022-12-18T06:48:28;4.20;99.90
26613;DHT22;14248;57.652;11.908;2022-12-18T06:50:55;4.20;99.90
26613;DHT22;14248;57.652;11.908;2022-12-18T06:53:23;4.20;99.90
26613;DHT22;14248;57.652;11.908;2022-12-18T06:55:51;4.20;99.90
26613;DHT22;14248;57.652;11.908;2022-12-18T06:58:17;4.20;99.90
26613;DHT22;14248;57.652;11.908;2022-12-18T07:00:43;4.20;99.90
26613;DHT22;14248;57.652;11.908;2022-12-18T07:03:10;4.20;99.90
26613;DHT22;14248;57.652;11.908;2022-12-18T07:05:40;4.20;99.90
26613;DHT22;14248;57.652;11.908;2022-12-18T07:08:07;4.20;99.90
26613;DHT22;14248;57.652;11.908;2022-12-18T07:10:43;4.20;99.90
26613;DHT22;14248;57.652;11.908;2022-12-18T07:13:09;4.20;99.90
26613;DHT22;14248;57.652;11.908;2022-12-18T07:15:36;4.20;99.90
26613;DHT22;14248;57.652;11.908;2022-12-18T07:18:03;4.20;99.90
26613;DHT22;14248;57.652;11.908;2022-12-18T07:20:29;4.20;99.90
26613;DHT22;14248;57.652;11.908;2022-12-18T07:23:01;4.20;99.90
26613;DHT22;14248;57.652;11.908;2022-12-18T07:25:27;4.30;99.90
26613;DHT22;14248;57.652;11.908;2022-12-18T07:27:54;4.30;99.90
26613;DHT22;14248;57.652;11.908;2022-12-18T07:30:20;4.30;99.90
26613;DHT22;14248;57.652;11.908;2022-12-18T07:32:46;4.30;99.90
26613;DHT22;14248;57.652;11.908;2022-12-18T07:35:12;4.40;99.90
26613;DHT22;14248;57.652;11.908;2022-12-18T07:37:41;4.40;99.90
26613;DHT22;14248;57.652;11.908;2022-12-18T07:40:08;4.40;99.90
26613;DHT22;14248;57.652;11.908;2022-12-18T07:47:34;4.40;99.90
26613;DHT22;14248;57.652;11.908;2022-12-18T07:50:02;4.40;99.90
26613;DHT22;14248;57.652;11.908;2022-12-18T07:52:28;4.40;99.90
26613;DHT22;14248;57.652;11.908;2022-12-18T07:54:55;4.40;99.90
26613;DHT22;14248;57.652;11.908;2022-12-18T07:57:21;4.50;99.90
26613;DHT22;14248;57.652;11.908;2022-12-18T07:59:46;4.50;99.90
26613;DHT22;14248;57.652;11.908;2022-12-18T08:02:12;4.50;99.90
26613;DHT22;14248;57.652;11.908;2022-12-18T08:04:38;4.50;99.90
26613;DHT22;14248;57.652;11.908;2022-12-18T08:07:04;4.50;99.90
26613;DHT22;14248;57.652;11.908;2022-12-18T08:09:30;4.60;99.90
26613;DHT22;14248;57.652;11.908;2022-12-18T08:11:56;4.50;99.90
26613;DHT22;14248;57.652;11.908;2022-12-18T08:14:24;4.50;99.90
26613;DHT22;14248;57.652;11.908;2022-12-18T08:16:54;4.50;99.90
26613;DHT22;14248;57.652;11.908;2022-12-18T08:19:21;4.60;99.90
26613;DHT22;14248;57.652;11.908;2022-12-18T08:21:48;4.60;99.90
26613;DHT22;14248;57.652;11.908;2022-12-18T08:24:15;4.60;99.90
26613;DHT22;14248;57.652;11.908;2022-12-18T08:26:40;4.60;99.90
26613;DHT22;14248;57.652;11.908;2022-12-18T08:29:06;4.60;99.90
26613;DHT22;14248;57.652;11.908;2022-12-18T08:31:32;4.60;99.90
26613;DHT22;14248;57.652;11.908;2022-12-18T08:34:00;4.60;99.90
26613;DHT22;14248;57.652;11.908;2022-12-18T08:36:26;4.60;99.90
26613;DHT22;14248;57.652;11.908;2022-12-18T08:38:51;4.60;99.90
26613;DHT22;14248;57.652;11.908;2022-12-18T08:41:17;4.70;99.90
26613;DHT22;14248;57.652;11.908;2022-12-18T08:43:43;4.70;99.90
26613;DHT22;14248;57.652;11.908;2022-12-18T08:46:41;4.70;99.90
26613;DHT22;14248;57.652;11.908;2022-12-18T08:49:08;4.60;99.90
26613;DHT22;14248;57.652;11.908;2022-12-18T08:51:35;4.70;99.90
26613;DHT22;14248;57.652;11.908;2022-12-18T08:54:02;4.70;99.90
26613;DHT22;14248;57.652;11.908;2022-12-18T08:56:29;4.70;99.90
26613;DHT22;14248;57.652;11.908;2022-12-18T08:58:55;4.70;99.90
26613;DHT22;14248;57.652;11.908;2022-12-18T09:01:21;4.70;99.90
26613;DHT22;14248;57.652;11.908;2022-12-18T09:03:48;4.70;99.90
26613;DHT22;14248;57.652;11.908;2022-12-18T09:06:16;4.70;99.90
26613;DHT22;14248;57.652;11.908;2022-12-18T09:08:43;4.70;99.90
26613;DHT22;14248;57.652;11.908;2022-12-18T09:11:26;4.70;99.90
26613;DHT22;14248;57.652;11.908;2022-12-18T09:13:53;4.70;99.90
26613;DHT22;14248;57.652;11.908;2022-12-18T09:16:20;4.70;99.90
26613;DHT22;14248;57.652;11.908;2022-12-18T09:18:46;4.70;99.90
26613;DHT22;14248;57.652;11.908;2022-12-18T09:21:18;4.80;99.90
26613;DHT22;14248;57.652;11.908;2022-12-18T09:23:55;4.80;99.90
26613;DHT22;14248;57.652;11.908;2022-12-18T09:26:22;4.80;99.90
26613;DHT22;14248;57.652;11.908;2022-12-18T09:28:49;4.80;99.90
26613;DHT22;14248;57.652;11.908;2022-12-18T09:31:18;4.80;99.90
26613;DHT22;14248;57.652;11.908;2022-12-18T09:33:46;4.80;99.90
26613;DHT22;14248;57.652;11.908;2022-12-18T09:36:15;4.80;99.90
26613;DHT22;14248;57.652;11.908;2022-12-18T09:38:42;4.70;99.90
26613;DHT22;14248;57.652;11.908;2022-12-18T09:49:23;4.70;99.90
26613;DHT22;14248;57.652;11.908;2022-12-18T09:52:02;4.60;99.90
26613;DHT22;14248;57.652;11.908;2022-12-18T09:54:39;4.60;99.90
26613;DHT22;14248;57.652;11.908;2022-12-18T09:57:05;4.60;99.90
26613;DHT22;14248;57.652;11.908;2022-12-18T09:59:37;4.50;99.90
26613;DHT22;14248;57.652;11.908;2022-12-18T10:02:17;4.50;99.90
26613;DHT22;14248;57.652;11.908;2022-12-18T10:04:43;4.50;99.90
26613;DHT22;14248;57.652;11.908;2022-12-18T10:08:16;4.40;99.90
26613;DHT22;14248;57.652;11.908;2022-12-18T10:10:39;4.40;99.90
26613;DHT22;14248;57.652;11.908;2022-12-18T10:15:52;4.30;99.90
26613;DHT22;14248;57.652;11.908;2022-12-18T10:27:18;4.40;99.90
26613;DHT22;14248;57.652;11.908;2022-12-18T10:29:47;4.40;99.90
26613;DHT22;14248;57.652;11.908;2022-12-18T10:32:30;4.40;99.90
26613;DHT22;14248;57.652;11.908;2022-12-18T10:34:57;4.40;99.90
26613;DHT22;14248;57.652;11.908;2022-12-18T10:37:27;4.40;99.90
26613;DHT22;14248;57.652;11.908;2022-12-18T10:40:12;4.40;99.90
26613;DHT22;14248;57.652;11.908;2022-12-18T10:42:38;4.30;99.90
26613;DHT22;14248;57.652;11.908;2022-12-18T10:45:15;4.30;99.90
26613;DHT22;14248;57.652;11.908;2022-12-18T10:47:48;4.40;99.90
26613;DHT22;14248;57.652;11.908;2022-12-18T10:53:04;4.60;99.90
26613;DHT22;14248;57.652;11.908;2022-12-18T10:55:35;4.70;99.90
26613;DHT22;14248;57.652;11.908;2022-12-18T11:01:14;4.90;99.90
26613;DHT22;14248;57.652;11.908;2022-12-18T11:04:00;4.90;99.90
26613;DHT22;14248;57.652;11.908;2022-12-18T11:06:26;5.00;99.90
26613;DHT22;14248;57.652;11.908;2022-12-18T11:09:06;5.00;99.90
26613;DHT22;14248;57.652;11.908;2022-12-18T11:11:48;5.00;99.90
26613;DHT22;14248;57.652;11.908;2022-12-18T11:14:24;5.00;99.90
26613;DHT22;14248;57.652;11.908;2022-12-18T11:16:51;5.00;99.90
26613;DHT22;14248;57.652;11.908;2022-12-18T11:19:38;5.00;99.90
26613;DHT22;14248;57.652;11.908;2022-12-18T11:27:22;5.00;99.90
26613;DHT22;14248;57.652;11.908;2022-12-18T11:29:49;5.00;99.90
26613;DHT22;14248;57.652;11.908;2022-12-18T11:35:20;5.00;99.90
26613;DHT22;14248;57.652;11.908;2022-12-18T11:37:54;5.10;99.90
26613;DHT22;14248;57.652;11.908;2022-12-18T11:40:32;5.10;99.90
26613;DHT22;14248;57.652;11.908;2022-12-18T11:46:11;5.10;99.90
26613;DHT22;14248;57.652;11.908;2022-12-18T11:48:45;5.20;99.90
26613;DHT22;14248;57.652;11.908;2022-12-18T11:51:32;5.30;99.90
26613;DHT22;14248;57.652;11.908;2022-12-18T11:54:00;5.40;99.90
26613;DHT22;14248;57.652;11.908;2022-12-18T11:56:49;5.40;99.90
26613;DHT22;14248;57.652;11.908;2022-12-18T12:05:08;5.30;99.90
26613;DHT22;14248;57.652;11.908;2022-12-18T12:40:13;5.00;99.90
26613;DHT22;14248;57.652;11.908;2022-12-18T12:42:50;5.00;99.90
26613;DHT22;14248;57.652;11.908;2022-12-18T12:46:03;5.00;99.90
26613;DHT22;14248;57.652;11.908;2022-12-18T12:48:48;5.00;99.90
26613;DHT22;14248;57.652;11.908;2022-12-18T12:53:44;5.00;99.90
26613;DHT22;14248;57.652;11.908;2022-12-18T12:56:13;5.10;99.90
26613;DHT22;14248;57.652;11.908;2022-12-18T13:01:38;5.10;99.90
26613;DHT22;14248;57.652;11.908;2022-12-18T13:04:24;5.10;99.90
26613;DHT22;14248;57.652;11.908;2022-12-18T13:07:00;5.00;99.90
26613;DHT22;14248;57.652;11.908;2022-12-18T13:09:32;5.00;99.90
26613;DHT22;14248;57.652;11.908;2022-12-18T13:12:09;5.00;99.90
26613;DHT22;14248;57.652;11.908;2022-12-18T13:14:53;4.90;99.90
26613;DHT22;14248;57.652;11.908;2022-12-18T13:17:36;4.80;99.90
26613;DHT22;14248;57.652;11.908;2022-12-18T13:20:13;4.80;99.90
26613;DHT22;14248;57.652;11.908;2022-12-18T13:22:45;4.80;99.90
26613;DHT22;14248;57.652;11.908;2022-12-18T13:25:31;4.70;99.90
26613;DHT22;14248;57.652;11.908;2022-12-18T13:38:37;4.60;99.90
26613;DHT22;14248;57.652;11.908;2022-12-18T13:41:22;4.60;99.90
26613;DHT22;14248;57.652;11.908;2022-12-18T13:43:53;4.60;99.90
26613;DHT22;14248;57.652;11.908;2022-12-18T13:46:28;4.50;99.90
26613;DHT22;14248;57.652;11.908;2022-12-18T13:51:49;4.50;99.90
26613;DHT22;14248;57.652;11.908;2022-12-18T13:56:59;4.60;99.90
26613;DHT22;14248;57.652;11.908;2022-12-18T13:59:36;4.50;99.90
26613;DHT22;14248;57.652;11.908;2022-12-18T14:02:16;4.40;99.90
26613;DHT22;14248;57.652;11.908;2022-12-18T14:04:45;4.40;99.90
26613;DHT22;14248;57.652;11.908;2022-12-18T14:09:52;4.30;99.90
26613;DHT22;14248;57.652;11.908;2022-12-18T14:12:24;4.20;99.90
26613;DHT22;14248;57.652;11.908;2022-12-18T14:25:14;4.10;99.90
26613;DHT22;14248;57.652;11.908;2022-12-18T14:27:46;4.00;99.90
26613;DHT22;14248;57.652;11.908;2022-12-18T14:30:35;3.90;99.90
26613;DHT22;14248;57.652;11.908;2022-12-18T14:33:17;4.00;99.90
26613;DHT22;14248;57.652;11.908;2022-12-18T14:38:40;4.10;99.90
26613;DHT22;14248;57.652;11.908;2022-12-18T15:19:17;4.30;99.90
26613;DHT22;14248;57.652;11.908;2022-12-18T15:21:44;4.70;99.90
26613;DHT22;14248;57.652;11.908;2022-12-18T15:24:18;4.70;99.90
26613;DHT22;14248;57.652;11.908;2022-12-18T15:26:45;4.70;99.90
26613;DHT22;14248;57.652;11.908;2022-12-18T15:29:23;4.80;99.90
26613;DHT22;14248;57.652;11.908;2022-12-18T15:32:05;4.80;99.90
26613;DHT22;14248;57.652;11.908;2022-12-18T15:34:41;4.80;99.90
26613;DHT22;14248;57.652;11.908;2022-12-18T15:37:07;4.80;99.90
26613;DHT22;14248;57.652;11.908;2022-12-18T15:39:33;4.80;99.90
26613;DHT22;14248;57.652;11.908;2022-12-18T15:42:01;4.90;99.90
26613;DHT22;14248;57.652;11.908;2022-12-18T15:44:45;4.90;99.90
26613;DHT22;14248;57.652;11.908;2022-12-18T15:47:12;4.90;99.90
26613;DHT22;14248;57.652;11.908;2022-12-18T15:49:38;4.90;99.90
26613;DHT22;14248;57.652;11.908;2022-12-18T15:52:05;4.90;99.90
26613;DHT22;14248;57.652;11.908;2022-12-18T15:54:31;4.90;99.90
26613;DHT22;14248;57.652;11.908;2022-12-18T15:57:15;4.90;99.90
26613;DHT22;14248;57.652;11.908;2022-12-18T15:59:55;4.80;99.90
26613;DHT22;14248;57.652;11.908;2022-12-18T16:02:23;4.80;99.90
26613;DHT22;14248;57.652;11.908;2022-12-18T16:04:50;4.80;99.90
26613;DHT22;14248;57.652;11.908;2022-12-18T16:07:17;4.80;99.90
26613;DHT22;14248;57.652;11.908;2022-12-18T16:09:43;4.70;99.90
26613;DHT22;14248;57.652;11.908;2022-12-18T16:12:21;4.70;99.90
26613;DHT22;14248;57.652;11.908;2022-12-18T16:14:48;4.70;99.90
26613;DHT22;14248;57.652;11.908;2022-12-18T16:17:14;4.70;99.90
26613;DHT22;14248;57.652;11.908;2022-12-18T16:19:40;4.70;99.90
26613;DHT22;14248;57.652;11.908;2022-12-18T16:22:05;4.70;99.90
26613;DHT22;14248;57.652;11.908;2022-12-18T16:24:33;4.70;99.90
26613;DHT22;14248;57.652;11.908;2022-12-18T16:27:02;4.70;99.90
26613;DHT22;14248;57.652;11.908;2022-12-18T16:29:29;4.70;99.90
26613;DHT22;14248;57.652;11.908;2022-12-18T16:31:59;4.70;99.90
26613;DHT22;14248;57.652;11.908;2022-12-18T16:34:27;4.70;99.90
26613;DHT22;14248;57.652;11.908;2022-12-18T16:37:07;4.70;99.90
26613;DHT22;14248;57.652;11.908;2022-12-18T16:39:33;4.70;99.90
26613;DHT22;14248;57.652;11.908;2022-12-18T16:42:01;4.70;99.90
26613;DHT22;14248;57.652;11.908;2022-12-18T16:44:27;4.70;99.90
26613;DHT22;14248;57.652;11.908;2022-12-18T16:46:57;4.70;99.90
26613;DHT22;14248;57.652;11.908;2022-12-18T16:49:27;4.70;99.90
26613;DHT22;14248;57.652;11.908;2022-12-18T17:08:36;4.70;99.90
26613;DHT22;14248;57.652;11.908;2022-12-18T17:11:08;4.80;99.90
26613;DHT22;14248;57.652;11.908;2022-12-18T17:13:34;4.80;99.90
26613;DHT22;14248;57.652;11.908;2022-12-18T18:00:08;4.80;99.90
26613;DHT22;14248;57.652;11.908;2022-12-18T18:02:34;4.90;99.90
26613;DHT22;14248;57.652;11.908;2022-12-18T18:05:03;4.90;99.90
26613;DHT22;14248;57.652;11.908;2022-12-18T18:07:28;4.90;99.90
26613;DHT22;14248;57.652;11.908;2022-12-18T18:09:54;4.90;99.90
26613;DHT22;14248;57.652;11.908;2022-12-18T18:12:20;4.90;99.90
26613;DHT22;14248;57.652;11.908;2022-12-18T18:15:04;4.90;99.90
26613;DHT22;14248;57.652;11.908;2022-12-18T18:17:30;4.90;99.90
26613;DHT22;14248;57.652;11.908;2022-12-18T18:19:55;4.90;99.90
26613;DHT22;14248;57.652;11.908;2022-12-18T18:22:21;4.90;99.90
26613;DHT22;14248;57.652;11.908;2022-12-18T18:24:50;4.90;99.90
26613;DHT22;14248;57.652;11.908;2022-12-18T18:27:15;4.80;99.90
26613;DHT22;14248;57.652;11.908;2022-12-18T18:29:41;4.80;99.90
26613;DHT22;14248;57.652;11.908;2022-12-18T18:32:07;4.80;99.90
26613;DHT22;14248;57.652;11.908;2022-12-18T18:34:33;4.80;99.90
26613;DHT22;14248;57.652;11.908;2022-12-18T18:36:59;4.80;99.90
26613;DHT22;14248;57.652;11.908;2022-12-18T18:39:25;4.80;99.90
26613;DHT22;14248;57.652;11.908;2022-12-18T18:41:51;4.80;99.90
26613;DHT22;14248;57.652;11.908;2022-12-18T18:44:18;4.80;99.90
26613;DHT22;14248;57.652;11.908;2022-12-18T18:46:45;4.70;99.90
26613;DHT22;14248;57.652;11.908;2022-12-18T18:49:11;4.70;99.90
26613;DHT22;14248;57.652;11.908;2022-12-18T18:51:38;4.70;99.90
26613;DHT22;14248;57.652;11.908;2022-12-18T18:54:04;4.70;99.90
26613;DHT22;14248;57.652;11.908;2022-12-18T18:56:30;4.70;99.90
26613;DHT22;14248;57.652;11.908;2022-12-18T18:58:57;4.70;99.90
26613;DHT22;14248;57.652;11.908;2022-12-18T19:01:24;4.70;99.90
26613;DHT22;14248;57.652;11.908;2022-12-18T19:03:50;4.70;99.90
26613;DHT22;14248;57.652;11.908;2022-12-18T19:06:25;4.70;99.90
26613;DHT22;14248;57.652;11.908;2022-12-18T19:08:53;4.70;99.90
26613;DHT22;14248;57.652;11.908;2022-12-18T19:11:19;4.70;99.90
26613;DHT22;14248;57.652;11.908;2022-12-18T19:14:05;4.70;99.90
26613;DHT22;14248;57.652;11.908;2022-12-18T19:16:33;4.80;99.90
26613;DHT22;14248;57.652;11.908;2022-12-18T19:18:59;4.80;99.90
26613;DHT22;14248;57.652;11.908;2022-12-18T19:21:25;4.80;99.90
26613;DHT22;14248;57.652;11.908;2022-12-18T19:23:50;4.80;99.90
26613;DHT22;14248;57.652;11.908;2022-12-18T19:26:17;4.80;99.90
26613;DHT22;14248;57.652;11.908;2022-12-18T19:28:43;4.80;99.90
26613;DHT22;14248;57.652;11.908;2022-12-18T19:31:10;4.80;99.90
26613;DHT22;14248;57.652;11.908;2022-12-18T19:33:39;4.80;99.90
26613;DHT22;14248;57.652;11.908;2022-12-18T19:36:20;4.80;99.90
26613;DHT22;14248;57.652;11.908;2022-12-18T19:38:46;4.80;99.90
26613;DHT22;14248;57.652;11.908;2022-12-18T19:41:12;4.80;99.90
26613;DHT22;14248;57.652;11.908;2022-12-18T19:43:38;4.80;99.90
26613;DHT22;14248;57.652;11.908;2022-12-18T19:46:06;4.80;99.90
26613;DHT22;14248;57.652;11.908;2022-12-18T19:48:34;4.80;99.90
26613;DHT22;14248;57.652;11.908;2022-12-18T19:51:18;4.70;99.90
26613;DHT22;14248;57.652;11.908;2022-12-18T19:53:44;4.70;99.90